sensor_id;sensor_type;location;lat;lon;timestamp;temperature;humidity
14995;DHT22;7593;49.006;8.372;2023-05-31T00:01:13;17.00;71.10
14995;DHT22;7593;49.006;8.372;2023-05-31T00:03:39;17.00;71.50
14995;DHT22;7593;49.006;8.372;2023-05-31T00:06:10;17.00;71.70
14995;DHT22;7593;49.006;8.372;2023-05-31T00:08:38;17.00;72.00
14995;DHT22;7593;49.006;8.372;2023-05-31T00:11:06;16.90;72.40
14995;DHT22;7593;49.006;8.372;2023-05-31T00:13:33;16.90;72.50
14995;DHT22;7593;49.006;8.372;2023-05-31T00:15:59;16.90;72.90
14995;DHT22;7593;49.006;8.372;2023-05-31T00:18:26;16.80;73.00
14995;DHT22;7593;49.006;8.372;2023-05-31T00:20:53;16.80;73.30
14995;DHT22;7593;49.006;8.372;2023-05-31T00:23:21;16.80;73.60
14995;DHT22;7593;49.006;8.372;2023-05-31T00:25:48;16.70;73.70
14995;DHT22;7593;49.006;8.372;2023-05-31T00:28:14;16.70;74.00
14995;DHT22;7593;49.006;8.372;2023-05-31T00:30:41;16.70;74.00
14995;DHT22;7593;49.006;8.372;2023-05-31T00:33:08;16.70;74.20
14995;DHT22;7593;49.006;8.372;2023-05-31T00:35:35;16.60;74.50
14995;DHT22;7593;49.006;8.372;2023-05-31T00:38:05;16.70;74.80
14995;DHT22;7593;49.006;8.372;2023-05-31T00:40:34;16.60;74.90
14995;DHT22;7593;49.006;8.372;2023-05-31T00:43:01;16.60;75.00
14995;DHT22;7593;49.006;8.372;2023-05-31T00:45:27;16.60;75.30
14995;DHT22;7593;49.006;8.372;2023-05-31T00:47:55;16.60;75.30
14995;DHT22;7593;49.006;8.372;2023-05-31T00:50:22;16.50;75.30
14995;DHT22;7593;49.006;8.372;2023-05-31T00:52:51;16.50;75.60
14995;DHT22;7593;49.006;8.372;2023-05-31T00:55:19;16.50;75.80
14995;DHT22;7593;49.006;8.372;2023-05-31T00:57:47;16.50;76.20
14995;DHT22;7593;49.006;8.372;2023-05-31T01:00:15;16.50;76.20
14995;DHT22;7593;49.006;8.372;2023-05-31T01:02:42;16.40;76.40
14995;DHT22;7593;49.006;8.372;2023-05-31T01:05:09;16.40;76.60
14995;DHT22;7593;49.006;8.372;2023-05-31T01:07:36;16.40;76.80
14995;DHT22;7593;49.006;8.372;2023-05-31T01:10:05;16.40;76.90
14995;DHT22;7593;49.006;8.372;2023-05-31T01:12:40;16.30;77.10
14995;DHT22;7593;49.006;8.372;2023-05-31T01:15:13;16.30;77.20
14995;DHT22;7593;49.006;8.372;2023-05-31T01:17:46;16.30;77.50
14995;DHT22;7593;49.006;8.372;2023-05-31T01:20:17;16.30;77.60
14995;DHT22;7593;49.006;8.372;2023-05-31T01:23:01;16.30;77.70
14995;DHT22;7593;49.006;8.372;2023-05-31T01:25:52;16.20;77.90
14995;DHT22;7593;49.006;8.372;2023-05-31T01:28:25;16.20;78.10
14995;DHT22;7593;49.006;8.372;2023-05-31T01:30:56;16.20;78.30
14995;DHT22;7593;49.006;8.372;2023-05-31T01:33:24;16.10;78.30
14995;DHT22;7593;49.006;8.372;2023-05-31T01:35:51;16.10;78.40
14995;DHT22;7593;49.006;8.372;2023-05-31T01:38:18;16.10;78.50
14995;DHT22;7593;49.006;8.372;2023-05-31T01:40:44;16.10;78.60
14995;DHT22;7593;49.006;8.372;2023-05-31T01:43:12;16.10;78.70
14995;DHT22;7593;49.006;8.372;2023-05-31T01:45:40;16.10;78.80
14995;DHT22;7593;49.006;8.372;2023-05-31T01:48:08;16.00;78.90
14995;DHT22;7593;49.006;8.372;2023-05-31T01:50:36;16.00;79.00
14995;DHT22;7593;49.006;8.372;2023-05-31T01:53:05;16.00;79.30
14995;DHT22;7593;49.006;8.372;2023-05-31T01:55:32;16.00;79.40
14995;DHT22;7593;49.006;8.372;2023-05-31T01:58:00;15.90;79.50
14995;DHT22;7593;49.006;8.372;2023-05-31T02:00:28;15.90;79.60
14995;DHT22;7593;49.006;8.372;2023-05-31T02:02:57;15.90;80.00
14995;DHT22;7593;49.006;8.372;2023-05-31T02:05:24;15.80;79.90
14995;DHT22;7593;49.006;8.372;2023-05-31T02:07:50;15.80;80.00
14995;DHT22;7593;49.006;8.372;2023-05-31T02:10:19;15.80;80.20
14995;DHT22;7593;49.006;8.372;2023-05-31T02:12:46;15.80;80.30
14995;DHT22;7593;49.006;8.372;2023-05-31T02:15:16;15.80;80.50
14995;DHT22;7593;49.006;8.372;2023-05-31T02:17:45;15.80;80.60
14995;DHT22;7593;49.006;8.372;2023-05-31T02:20:17;15.70;80.60
14995;DHT22;7593;49.006;8.372;2023-05-31T02:22:45;15.70;80.70
14995;DHT22;7593;49.006;8.372;2023-05-31T02:25:13;15.70;80.90
14995;DHT22;7593;49.006;8.372;2023-05-31T02:27:40;15.70;81.00
14995;DHT22;7593;49.006;8.372;2023-05-31T02:30:09;15.70;81.20
14995;DHT22;7593;49.006;8.372;2023-05-31T02:32:36;15.60;81.20
14995;DHT22;7593;49.006;8.372;2023-05-31T02:35:03;15.70;81.40
14995;DHT22;7593;49.006;8.372;2023-05-31T02:37:32;15.60;81.50
14995;DHT22;7593;49.006;8.372;2023-05-31T02:39:59;15.60;81.60
14995;DHT22;7593;49.006;8.372;2023-05-31T02:42:26;15.60;81.80
14995;DHT22;7593;49.006;8.372;2023-05-31T02:44:53;15.60;81.80
14995;DHT22;7593;49.006;8.372;2023-05-31T02:47:19;15.50;81.80
14995;DHT22;7593;49.006;8.372;2023-05-31T02:49:46;15.50;81.90
14995;DHT22;7593;49.006;8.372;2023-05-31T02:52:13;15.50;82.10
14995;DHT22;7593;49.006;8.372;2023-05-31T02:54:41;15.50;82.20
14995;DHT22;7593;49.006;8.372;2023-05-31T02:57:08;15.40;82.20
14995;DHT22;7593;49.006;8.372;2023-05-31T02:59:35;15.40;82.40
14995;DHT22;7593;49.006;8.372;2023-05-31T03:02:01;15.40;83.10
14995;DHT22;7593;49.006;8.372;2023-05-31T03:04:28;15.40;82.50
14995;DHT22;7593;49.006;8.372;2023-05-31T03:06:56;15.40;82.50
14995;DHT22;7593;49.006;8.372;2023-05-31T03:09:23;15.40;82.70
14995;DHT22;7593;49.006;8.372;2023-05-31T03:11:51;15.40;82.80
14995;DHT22;7593;49.006;8.372;2023-05-31T03:14:17;15.30;82.80
14995;DHT22;7593;49.006;8.372;2023-05-31T03:16:44;15.30;82.80
14995;DHT22;7593;49.006;8.372;2023-05-31T03:19:11;15.30;83.00
14995;DHT22;7593;49.006;8.372;2023-05-31T03:21:38;15.30;83.00
14995;DHT22;7593;49.006;8.372;2023-05-31T03:24:05;15.30;83.00
14995;DHT22;7593;49.006;8.372;2023-05-31T03:26:32;15.30;83.10
14995;DHT22;7593;49.006;8.372;2023-05-31T03:29:00;15.30;83.20
14995;DHT22;7593;49.006;8.372;2023-05-31T03:31:27;15.20;83.30
14995;DHT22;7593;49.006;8.372;2023-05-31T03:33:54;15.20;83.50
14995;DHT22;7593;49.006;8.372;2023-05-31T03:36:21;15.20;83.80
14995;DHT22;7593;49.006;8.372;2023-05-31T03:38:48;15.10;83.70
14995;DHT22;7593;49.006;8.372;2023-05-31T03:41:14;15.10;84.00
14995;DHT22;7593;49.006;8.372;2023-05-31T03:43:41;15.10;84.20
14995;DHT22;7593;49.006;8.372;2023-05-31T03:46:09;15.20;84.50
14995;DHT22;7593;49.006;8.372;2023-05-31T03:48:36;15.10;84.40
14995;DHT22;7593;49.006;8.372;2023-05-31T03:51:03;15.10;84.60
14995;DHT22;7593;49.006;8.372;2023-05-31T03:53:29;15.10;84.70
14995;DHT22;7593;49.006;8.372;2023-05-31T03:55:56;15.00;84.70
14995;DHT22;7593;49.006;8.372;2023-05-31T03:58:23;15.00;84.80
14995;DHT22;7593;49.006;8.372;2023-05-31T04:00:50;15.00;85.00
14995;DHT22;7593;49.006;8.372;2023-05-31T04:03:18;15.00;85.30
14995;DHT22;7593;49.006;8.372;2023-05-31T04:05:44;14.90;85.40
14995;DHT22;7593;49.006;8.372;2023-05-31T04:08:11;15.00;85.50
14995;DHT22;7593;49.006;8.372;2023-05-31T04:10:38;15.00;85.90
14995;DHT22;7593;49.006;8.372;2023-05-31T04:13:06;14.90;85.70
14995;DHT22;7593;49.006;8.372;2023-05-31T04:15:32;14.90;85.80
14995;DHT22;7593;49.006;8.372;2023-05-31T04:17:59;14.90;86.00
14995;DHT22;7593;49.006;8.372;2023-05-31T04:20:27;14.90;86.10
14995;DHT22;7593;49.006;8.372;2023-05-31T04:22:54;14.90;86.40
14995;DHT22;7593;49.006;8.372;2023-05-31T04:25:21;14.90;86.70
14995;DHT22;7593;49.006;8.372;2023-05-31T04:27:48;14.90;87.10
14995;DHT22;7593;49.006;8.372;2023-05-31T04:30:14;14.90;87.30
14995;DHT22;7593;49.006;8.372;2023-05-31T04:32:41;14.90;87.60
14995;DHT22;7593;49.006;8.372;2023-05-31T04:35:09;14.90;87.70
14995;DHT22;7593;49.006;8.372;2023-05-31T04:37:37;14.90;88.00
14995;DHT22;7593;49.006;8.372;2023-05-31T04:40:06;14.80;88.00
14995;DHT22;7593;49.006;8.372;2023-05-31T04:42:35;14.80;88.20
14995;DHT22;7593;49.006;8.372;2023-05-31T04:45:02;14.90;88.40
14995;DHT22;7593;49.006;8.372;2023-05-31T04:47:30;14.90;88.50
14995;DHT22;7593;49.006;8.372;2023-05-31T04:49:57;14.90;88.50
14995;DHT22;7593;49.006;8.372;2023-05-31T04:52:25;14.90;88.40
14995;DHT22;7593;49.006;8.372;2023-05-31T04:54:56;14.90;88.50
14995;DHT22;7593;49.006;8.372;2023-05-31T04:57:23;15.00;88.70
14995;DHT22;7593;49.006;8.372;2023-05-31T04:59:50;15.00;88.50
14995;DHT22;7593;49.006;8.372;2023-05-31T05:02:17;15.00;88.50
14995;DHT22;7593;49.006;8.372;2023-05-31T05:04:44;15.00;88.60
14995;DHT22;7593;49.006;8.372;2023-05-31T05:07:11;15.10;88.60
14995;DHT22;7593;49.006;8.372;2023-05-31T05:09:38;15.10;88.20
14995;DHT22;7593;49.006;8.372;2023-05-31T05:12:08;15.20;88.10
14995;DHT22;7593;49.006;8.372;2023-05-31T05:14:34;15.30;87.80
14995;DHT22;7593;49.006;8.372;2023-05-31T05:17:01;15.40;87.50
14995;DHT22;7593;49.006;8.372;2023-05-31T05:19:28;15.40;87.60
14995;DHT22;7593;49.006;8.372;2023-05-31T05:21:54;15.50;87.40
14995;DHT22;7593;49.006;8.372;2023-05-31T05:24:21;15.50;87.00
14995;DHT22;7593;49.006;8.372;2023-05-31T05:26:48;15.60;86.10
14995;DHT22;7593;49.006;8.372;2023-05-31T05:29:16;15.70;85.80
14995;DHT22;7593;49.006;8.372;2023-05-31T05:31:43;15.80;85.60
14995;DHT22;7593;49.006;8.372;2023-05-31T05:34:09;15.80;85.70
14995;DHT22;7593;49.006;8.372;2023-05-31T05:36:36;15.80;85.20
14995;DHT22;7593;49.006;8.372;2023-05-31T05:39:03;15.90;85.20
14995;DHT22;7593;49.006;8.372;2023-05-31T05:41:31;15.90;84.90
14995;DHT22;7593;49.006;8.372;2023-05-31T05:43:58;15.90;85.20
14995;DHT22;7593;49.006;8.372;2023-05-31T05:46:26;16.00;84.70
14995;DHT22;7593;49.006;8.372;2023-05-31T05:48:53;16.00;84.70
14995;DHT22;7593;49.006;8.372;2023-05-31T05:51:20;16.00;84.50
14995;DHT22;7593;49.006;8.372;2023-05-31T05:53:47;16.00;84.50
14995;DHT22;7593;49.006;8.372;2023-05-31T05:56:14;16.00;84.60
14995;DHT22;7593;49.006;8.372;2023-05-31T05:58:44;16.10;84.30
14995;DHT22;7593;49.006;8.372;2023-05-31T06:01:12;16.10;84.50
14995;DHT22;7593;49.006;8.372;2023-05-31T06:03:46;16.20;84.20
14995;DHT22;7593;49.006;8.372;2023-05-31T06:06:14;16.30;84.00
14995;DHT22;7593;49.006;8.372;2023-05-31T06:08:42;16.30;84.10
14995;DHT22;7593;49.006;8.372;2023-05-31T06:11:09;16.30;83.50
14995;DHT22;7593;49.006;8.372;2023-05-31T06:13:36;16.40;83.50
14995;DHT22;7593;49.006;8.372;2023-05-31T06:16:03;16.40;83.20
14995;DHT22;7593;49.006;8.372;2023-05-31T06:18:30;16.50;83.30
14995;DHT22;7593;49.006;8.372;2023-05-31T06:20:58;16.60;83.60
14995;DHT22;7593;49.006;8.372;2023-05-31T06:23:25;16.70;83.30
14995;DHT22;7593;49.006;8.372;2023-05-31T06:25:52;16.90;83.00
14995;DHT22;7593;49.006;8.372;2023-05-31T06:28:19;17.30;82.30
14995;DHT22;7593;49.006;8.372;2023-05-31T06:30:45;17.70;81.20
14995;DHT22;7593;49.006;8.372;2023-05-31T06:33:12;18.10;80.50
14995;DHT22;7593;49.006;8.372;2023-05-31T06:35:39;18.50;79.80
14995;DHT22;7593;49.006;8.372;2023-05-31T06:38:09;18.80;78.90
14995;DHT22;7593;49.006;8.372;2023-05-31T06:40:40;19.10;78.10
14995;DHT22;7593;49.006;8.372;2023-05-31T06:43:07;19.30;77.20
14995;DHT22;7593;49.006;8.372;2023-05-31T06:45:34;19.40;76.70
14995;DHT22;7593;49.006;8.372;2023-05-31T06:48:01;19.70;76.70
14995;DHT22;7593;49.006;8.372;2023-05-31T06:50:28;19.80;76.40
14995;DHT22;7593;49.006;8.372;2023-05-31T06:52:55;20.00;76.00
14995;DHT22;7593;49.006;8.372;2023-05-31T06:55:23;20.30;75.90
14995;DHT22;7593;49.006;8.372;2023-05-31T06:57:49;20.50;74.20
14995;DHT22;7593;49.006;8.372;2023-05-31T07:00:17;20.70;74.80
14995;DHT22;7593;49.006;8.372;2023-05-31T07:02:44;20.70;73.30
14995;DHT22;7593;49.006;8.372;2023-05-31T07:05:11;20.80;73.50
14995;DHT22;7593;49.006;8.372;2023-05-31T07:07:38;20.80;73.20
14995;DHT22;7593;49.006;8.372;2023-05-31T07:10:05;20.80;73.40
14995;DHT22;7593;49.006;8.372;2023-05-31T07:12:33;20.90;73.20
14995;DHT22;7593;49.006;8.372;2023-05-31T07:15:00;20.90;73.40
14995;DHT22;7593;49.006;8.372;2023-05-31T07:17:27;21.10;73.20
14995;DHT22;7593;49.006;8.372;2023-05-31T07:19:54;21.30;73.40
14995;DHT22;7593;49.006;8.372;2023-05-31T07:22:22;21.30;71.90
14995;DHT22;7593;49.006;8.372;2023-05-31T07:24:49;21.40;72.40
14995;DHT22;7593;49.006;8.372;2023-05-31T07:27:15;21.40;72.50
14995;DHT22;7593;49.006;8.372;2023-05-31T07:29:43;21.40;72.50
14995;DHT22;7593;49.006;8.372;2023-05-31T07:32:10;21.50;72.50
14995;DHT22;7593;49.006;8.372;2023-05-31T07:34:37;21.70;71.70
14995;DHT22;7593;49.006;8.372;2023-05-31T07:37:04;21.90;71.90
14995;DHT22;7593;49.006;8.372;2023-05-31T07:39:31;22.10;71.50
14995;DHT22;7593;49.006;8.372;2023-05-31T07:41:58;22.30;71.40
14995;DHT22;7593;49.006;8.372;2023-05-31T07:44:26;22.60;71.20
14995;DHT22;7593;49.006;8.372;2023-05-31T07:46:54;22.80;69.80
14995;DHT22;7593;49.006;8.372;2023-05-31T07:49:20;23.10;69.70
14995;DHT22;7593;49.006;8.372;2023-05-31T07:51:47;23.00;69.50
14995;DHT22;7593;49.006;8.372;2023-05-31T07:54:14;22.80;69.50
14995;DHT22;7593;49.006;8.372;2023-05-31T07:56:41;22.70;69.00
14995;DHT22;7593;49.006;8.372;2023-05-31T07:59:08;22.80;69.50
14995;DHT22;7593;49.006;8.372;2023-05-31T08:01:34;22.70;69.50
14995;DHT22;7593;49.006;8.372;2023-05-31T08:04:07;22.80;69.20
14995;DHT22;7593;49.006;8.372;2023-05-31T08:06:34;22.60;69.00
14995;DHT22;7593;49.006;8.372;2023-05-31T08:09:02;22.60;70.00
14995;DHT22;7593;49.006;8.372;2023-05-31T08:11:30;22.80;69.80
14995;DHT22;7593;49.006;8.372;2023-05-31T08:13:57;23.00;69.20
14995;DHT22;7593;49.006;8.372;2023-05-31T08:16:24;23.20;69.00
14995;DHT22;7593;49.006;8.372;2023-05-31T08:18:50;23.30;68.80
14995;DHT22;7593;49.006;8.372;2023-05-31T08:21:18;23.50;68.50
14995;DHT22;7593;49.006;8.372;2023-05-31T08:23:45;23.80;68.30
14995;DHT22;7593;49.006;8.372;2023-05-31T08:26:12;23.90;68.00
14995;DHT22;7593;49.006;8.372;2023-05-31T08:28:39;23.90;68.00
14995;DHT22;7593;49.006;8.372;2023-05-31T08:31:06;23.70;68.00
14995;DHT22;7593;49.006;8.372;2023-05-31T08:33:33;23.70;68.00
14995;DHT22;7593;49.006;8.372;2023-05-31T08:36:00;23.70;68.40
14995;DHT22;7593;49.006;8.372;2023-05-31T08:38:30;23.80;68.70
14995;DHT22;7593;49.006;8.372;2023-05-31T08:41:01;23.90;68.80
14995;DHT22;7593;49.006;8.372;2023-05-31T08:43:29;24.20;68.70
14995;DHT22;7593;49.006;8.372;2023-05-31T08:45:57;24.70;67.80
14995;DHT22;7593;49.006;8.372;2023-05-31T08:48:28;25.00;67.00
14995;DHT22;7593;49.006;8.372;2023-05-31T08:50:57;25.40;66.70
14995;DHT22;7593;49.006;8.372;2023-05-31T08:53:24;25.60;66.00
14995;DHT22;7593;49.006;8.372;2023-05-31T08:55:53;25.80;65.90
14995;DHT22;7593;49.006;8.372;2023-05-31T08:58:20;26.00;65.40
14995;DHT22;7593;49.006;8.372;2023-05-31T09:00:48;26.00;64.50
14995;DHT22;7593;49.006;8.372;2023-05-31T09:03:15;25.60;65.50
14995;DHT22;7593;49.006;8.372;2023-05-31T09:05:42;25.60;65.90
14995;DHT22;7593;49.006;8.372;2023-05-31T09:08:08;25.70;65.10
14995;DHT22;7593;49.006;8.372;2023-05-31T09:10:36;25.60;66.50
14995;DHT22;7593;49.006;8.372;2023-05-31T09:13:04;25.70;65.30
14995;DHT22;7593;49.006;8.372;2023-05-31T09:15:32;25.80;65.40
14995;DHT22;7593;49.006;8.372;2023-05-31T09:18:12;25.90;64.90
14995;DHT22;7593;49.006;8.372;2023-05-31T09:20:38;25.90;64.70
14995;DHT22;7593;49.006;8.372;2023-05-31T09:23:07;25.80;65.50
14995;DHT22;7593;49.006;8.372;2023-05-31T09:25:44;25.80;66.10
14995;DHT22;7593;49.006;8.372;2023-05-31T09:28:12;25.70;65.30
14995;DHT22;7593;49.006;8.372;2023-05-31T09:30:39;25.70;65.90
14995;DHT22;7593;49.006;8.372;2023-05-31T09:33:06;26.10;65.00
14995;DHT22;7593;49.006;8.372;2023-05-31T09:35:34;26.30;65.10
14995;DHT22;7593;49.006;8.372;2023-05-31T09:38:04;26.60;64.50
14995;DHT22;7593;49.006;8.372;2023-05-31T09:40:31;26.40;64.30
14995;DHT22;7593;49.006;8.372;2023-05-31T09:42:58;26.30;64.20
14995;DHT22;7593;49.006;8.372;2023-05-31T09:45:26;26.30;63.70
14995;DHT22;7593;49.006;8.372;2023-05-31T09:47:54;26.40;64.20
14995;DHT22;7593;49.006;8.372;2023-05-31T09:50:22;26.70;63.80
14995;DHT22;7593;49.006;8.372;2023-05-31T09:52:54;26.50;63.70
14995;DHT22;7593;49.006;8.372;2023-05-31T09:55:21;26.60;63.70
14995;DHT22;7593;49.006;8.372;2023-05-31T09:57:51;26.70;63.40
14995;DHT22;7593;49.006;8.372;2023-05-31T10:00:18;27.00;62.70
14995;DHT22;7593;49.006;8.372;2023-05-31T10:02:48;27.20;62.40
14995;DHT22;7593;49.006;8.372;2023-05-31T10:05:16;27.50;62.40
14995;DHT22;7593;49.006;8.372;2023-05-31T10:07:44;27.10;61.30
14995;DHT22;7593;49.006;8.372;2023-05-31T10:10:11;26.70;62.40
14995;DHT22;7593;49.006;8.372;2023-05-31T10:12:44;26.90;62.50
14995;DHT22;7593;49.006;8.372;2023-05-31T10:15:13;27.20;62.10
14995;DHT22;7593;49.006;8.372;2023-05-31T10:17:45;27.40;60.70
14995;DHT22;7593;49.006;8.372;2023-05-31T10:20:16;27.50;60.70
14995;DHT22;7593;49.006;8.372;2023-05-31T10:22:44;27.80;60.00
14995;DHT22;7593;49.006;8.372;2023-05-31T10:25:17;28.10;59.70
14995;DHT22;7593;49.006;8.372;2023-05-31T10:27:51;28.40;58.60
14995;DHT22;7593;49.006;8.372;2023-05-31T10:30:20;28.10;58.00
14995;DHT22;7593;49.006;8.372;2023-05-31T10:32:55;27.50;57.70
14995;DHT22;7593;49.006;8.372;2023-05-31T10:35:27;27.50;57.90
14995;DHT22;7593;49.006;8.372;2023-05-31T10:37:54;27.40;58.10
14995;DHT22;7593;49.006;8.372;2023-05-31T10:40:26;27.20;57.60
14995;DHT22;7593;49.006;8.372;2023-05-31T10:42:58;27.20;57.80
14995;DHT22;7593;49.006;8.372;2023-05-31T10:45:28;27.50;57.50
14995;DHT22;7593;49.006;8.372;2023-05-31T10:47:59;27.90;57.40
14995;DHT22;7593;49.006;8.372;2023-05-31T10:50:28;28.10;56.20
14995;DHT22;7593;49.006;8.372;2023-05-31T10:53:09;28.20;55.70
14995;DHT22;7593;49.006;8.372;2023-05-31T10:55:40;28.10;55.80
14995;DHT22;7593;49.006;8.372;2023-05-31T10:58:24;28.10;55.90
14995;DHT22;7593;49.006;8.372;2023-05-31T11:00:52;28.00;55.70
14995;DHT22;7593;49.006;8.372;2023-05-31T11:03:21;27.80;56.10
14995;DHT22;7593;49.006;8.372;2023-05-31T11:05:56;27.90;55.70
14995;DHT22;7593;49.006;8.372;2023-05-31T11:08:23;27.90;55.70
14995;DHT22;7593;49.006;8.372;2023-05-31T11:10:50;28.10;55.10
14995;DHT22;7593;49.006;8.372;2023-05-31T11:13:18;28.30;54.80
14995;DHT22;7593;49.006;8.372;2023-05-31T11:15:46;28.30;55.00
14995;DHT22;7593;49.006;8.372;2023-05-31T11:18:22;27.90;55.10
14995;DHT22;7593;49.006;8.372;2023-05-31T11:20:49;28.00;55.60
14995;DHT22;7593;49.006;8.372;2023-05-31T11:23:32;28.20;55.50
14995;DHT22;7593;49.006;8.372;2023-05-31T11:26:11;28.50;55.20
14995;DHT22;7593;49.006;8.372;2023-05-31T11:28:56;28.60;55.00
14995;DHT22;7593;49.006;8.372;2023-05-31T11:34:29;28.70;54.60
14995;DHT22;7593;49.006;8.372;2023-05-31T11:37:00;29.00;54.30
14995;DHT22;7593;49.006;8.372;2023-05-31T11:39:29;28.80;53.90
14995;DHT22;7593;49.006;8.372;2023-05-31T11:41:57;28.70;54.80
14995;DHT22;7593;49.006;8.372;2023-05-31T11:44:28;28.70;54.70
14995;DHT22;7593;49.006;8.372;2023-05-31T11:46:59;29.00;55.00
14995;DHT22;7593;49.006;8.372;2023-05-31T11:49:30;29.40;54.70
14995;DHT22;7593;49.006;8.372;2023-05-31T11:51:57;29.70;54.50
14995;DHT22;7593;49.006;8.372;2023-05-31T11:54:26;29.70;54.00
14995;DHT22;7593;49.006;8.372;2023-05-31T11:57:02;29.80;54.00
14995;DHT22;7593;49.006;8.372;2023-05-31T11:59:30;29.70;53.50
14995;DHT22;7593;49.006;8.372;2023-05-31T12:01:59;29.90;53.60
14995;DHT22;7593;49.006;8.372;2023-05-31T12:04:31;30.00;53.80
14995;DHT22;7593;49.006;8.372;2023-05-31T12:06:58;30.00;54.10
14995;DHT22;7593;49.006;8.372;2023-05-31T12:09:27;30.20;54.10
14995;DHT22;7593;49.006;8.372;2023-05-31T12:11:54;29.90;54.00
14995;DHT22;7593;49.006;8.372;2023-05-31T12:14:23;30.00;54.10
14995;DHT22;7593;49.006;8.372;2023-05-31T12:16:51;30.20;53.50
14995;DHT22;7593;49.006;8.372;2023-05-31T12:19:18;30.50;53.60
14995;DHT22;7593;49.006;8.372;2023-05-31T12:21:45;30.90;53.20
14995;DHT22;7593;49.006;8.372;2023-05-31T12:24:12;30.70;52.90
14995;DHT22;7593;49.006;8.372;2023-05-31T12:26:40;30.70;53.40
14995;DHT22;7593;49.006;8.372;2023-05-31T12:29:08;31.10;53.00
14995;DHT22;7593;49.006;8.372;2023-05-31T12:31:37;31.00;52.60
14995;DHT22;7593;49.006;8.372;2023-05-31T12:34:08;31.00;52.40
14995;DHT22;7593;49.006;8.372;2023-05-31T12:36:41;31.00;52.20
14995;DHT22;7593;49.006;8.372;2023-05-31T12:39:09;31.10;52.40
14995;DHT22;7593;49.006;8.372;2023-05-31T12:41:37;31.20;52.30
14995;DHT22;7593;49.006;8.372;2023-05-31T12:44:06;31.00;52.10
14995;DHT22;7593;49.006;8.372;2023-05-31T12:46:41;31.20;52.20
14995;DHT22;7593;49.006;8.372;2023-05-31T12:49:18;31.40;51.90
14995;DHT22;7593;49.006;8.372;2023-05-31T12:51:45;31.10;51.70
14995;DHT22;7593;49.006;8.372;2023-05-31T12:54:12;31.10;51.70
14995;DHT22;7593;49.006;8.372;2023-05-31T12:56:39;31.00;52.00
14995;DHT22;7593;49.006;8.372;2023-05-31T12:59:06;30.90;52.00
14995;DHT22;7593;49.006;8.372;2023-05-31T13:01:34;30.70;52.00
14995;DHT22;7593;49.006;8.372;2023-05-31T13:04:02;30.80;52.00
14995;DHT22;7593;49.006;8.372;2023-05-31T13:06:29;31.00;51.50
14995;DHT22;7593;49.006;8.372;2023-05-31T13:08:55;30.60;50.60
14995;DHT22;7593;49.006;8.372;2023-05-31T13:11:22;30.20;52.00
14995;DHT22;7593;49.006;8.372;2023-05-31T13:13:49;30.30;52.70
14995;DHT22;7593;49.006;8.372;2023-05-31T13:16:16;30.80;52.30
14995;DHT22;7593;49.006;8.372;2023-05-31T13:18:42;31.20;51.40
14995;DHT22;7593;49.006;8.372;2023-05-31T13:21:11;31.30;51.60
14995;DHT22;7593;49.006;8.372;2023-05-31T13:23:37;31.60;51.30
14995;DHT22;7593;49.006;8.372;2023-05-31T13:26:04;31.90;51.30
14995;DHT22;7593;49.006;8.372;2023-05-31T13:28:31;32.30;51.10
14995;DHT22;7593;49.006;8.372;2023-05-31T13:30:58;32.00;50.90
14995;DHT22;7593;49.006;8.372;2023-05-31T13:33:24;31.90;50.60
14995;DHT22;7593;49.006;8.372;2023-05-31T13:35:53;31.60;50.30
14995;DHT22;7593;49.006;8.372;2023-05-31T13:38:22;31.70;50.10
14995;DHT22;7593;49.006;8.372;2023-05-31T13:40:49;32.00;49.70
14995;DHT22;7593;49.006;8.372;2023-05-31T13:43:17;31.70;49.90
14995;DHT22;7593;49.006;8.372;2023-05-31T13:45:45;31.70;49.50
14995;DHT22;7593;49.006;8.372;2023-05-31T13:48:11;32.10;49.30
14995;DHT22;7593;49.006;8.372;2023-05-31T13:50:40;32.20;49.10
14995;DHT22;7593;49.006;8.372;2023-05-31T13:53:08;32.30;48.70
14995;DHT22;7593;49.006;8.372;2023-05-31T13:55:37;31.90;48.80
14995;DHT22;7593;49.006;8.372;2023-05-31T13:58:04;31.90;48.60
14995;DHT22;7593;49.006;8.372;2023-05-31T14:00:32;32.00;49.10
14995;DHT22;7593;49.006;8.372;2023-05-31T14:02:59;32.20;48.90
14995;DHT22;7593;49.006;8.372;2023-05-31T14:05:26;31.80;48.20
14995;DHT22;7593;49.006;8.372;2023-05-31T14:07:52;31.80;48.20
14995;DHT22;7593;49.006;8.372;2023-05-31T14:10:19;31.90;48.10
14995;DHT22;7593;49.006;8.372;2023-05-31T14:12:47;32.00;47.70
14995;DHT22;7593;49.006;8.372;2023-05-31T14:15:15;32.10;47.90
14995;DHT22;7593;49.006;8.372;2023-05-31T14:17:42;32.40;48.00
14995;DHT22;7593;49.006;8.372;2023-05-31T14:20:09;32.60;47.60
14995;DHT22;7593;49.006;8.372;2023-05-31T14:22:37;32.40;47.60
14995;DHT22;7593;49.006;8.372;2023-05-31T14:25:04;32.00;47.50
14995;DHT22;7593;49.006;8.372;2023-05-31T14:27:31;31.60;47.80
14995;DHT22;7593;49.006;8.372;2023-05-31T14:29:59;31.30;48.40
14995;DHT22;7593;49.006;8.372;2023-05-31T14:32:26;31.00;47.80
14995;DHT22;7593;49.006;8.372;2023-05-31T14:34:53;30.80;48.10
14995;DHT22;7593;49.006;8.372;2023-05-31T14:37:19;30.90;48.30
14995;DHT22;7593;49.006;8.372;2023-05-31T14:39:46;31.10;48.40
14995;DHT22;7593;49.006;8.372;2023-05-31T14:42:13;31.30;48.30
14995;DHT22;7593;49.006;8.372;2023-05-31T14:44:40;31.40;48.00
14995;DHT22;7593;49.006;8.372;2023-05-31T14:47:10;31.60;48.00
14995;DHT22;7593;49.006;8.372;2023-05-31T14:49:37;31.80;47.60
14995;DHT22;7593;49.006;8.372;2023-05-31T14:52:04;31.90;47.40
14995;DHT22;7593;49.006;8.372;2023-05-31T14:54:33;31.70;47.50
14995;DHT22;7593;49.006;8.372;2023-05-31T14:57:00;31.60;47.60
14995;DHT22;7593;49.006;8.372;2023-05-31T14:59:28;31.40;46.60
14995;DHT22;7593;49.006;8.372;2023-05-31T15:01:55;30.90;46.70
14995;DHT22;7593;49.006;8.372;2023-05-31T15:04:24;30.60;47.20
14995;DHT22;7593;49.006;8.372;2023-05-31T15:06:51;30.60;47.30
14995;DHT22;7593;49.006;8.372;2023-05-31T15:09:18;30.80;47.50
14995;DHT22;7593;49.006;8.372;2023-05-31T15:11:45;30.60;47.90
14995;DHT22;7593;49.006;8.372;2023-05-31T15:14:12;30.60;48.30
14995;DHT22;7593;49.006;8.372;2023-05-31T15:16:39;30.70;48.10
14995;DHT22;7593;49.006;8.372;2023-05-31T15:19:06;30.70;47.40
14995;DHT22;7593;49.006;8.372;2023-05-31T15:21:34;30.80;47.20
14995;DHT22;7593;49.006;8.372;2023-05-31T15:24:01;31.00;46.90
14995;DHT22;7593;49.006;8.372;2023-05-31T15:26:27;31.10;46.40
14995;DHT22;7593;49.006;8.372;2023-05-31T15:28:54;31.40;46.40
14995;DHT22;7593;49.006;8.372;2023-05-31T15:31:21;31.30;46.50
14995;DHT22;7593;49.006;8.372;2023-05-31T15:33:48;31.30;46.70
14995;DHT22;7593;49.006;8.372;2023-05-31T15:36:15;31.50;46.80
14995;DHT22;7593;49.006;8.372;2023-05-31T15:38:43;31.80;46.40
14995;DHT22;7593;49.006;8.372;2023-05-31T15:41:10;32.10;45.90
14995;DHT22;7593;49.006;8.372;2023-05-31T15:43:37;32.40;45.60
14995;DHT22;7593;49.006;8.372;2023-05-31T15:46:04;32.30;44.80
14995;DHT22;7593;49.006;8.372;2023-05-31T15:48:30;32.70;44.20
14995;DHT22;7593;49.006;8.372;2023-05-31T15:50:57;33.10;43.90
14995;DHT22;7593;49.006;8.372;2023-05-31T15:53:24;33.30;43.40